If you wish to contribute or participate in the discussions about articles you are invited to join SKYbrary as a registered user

 Actions

Jerez Airport

From SKYbrary Wiki

LEJR
Airport
ICAO: LEJR – IATA: XRY
Summary
Name Jerez Airport
Region Europe
Territory Spain ES.gif
Location , Andalucia
Serving Jerez
Elevation 28.346 m
93 ft
93 ft28.346 m
Type medium airport
Coordinates 36° 44' 40.64" N, 6° 3' 36.40" W
Runways
Designator Length Width Surface ROPS
2/20 2300 m7,545.932 ft
45 m147.638 ft
ASP yes/yes


METAR
Observation LEJR 211100Z VRB03KT 9999 FEW030 18/12 Q1017
Station Jerez De La Fronteraaeropuerto
Date/Time 21 October 2019 11:00:00
Wind direction °
Wind speed 03 kts
Lowest cloud amount few clouds
Temperature 18°C
Dew point 12°C
Humidity 67%
QNH 1017 hPa
Weather condition n/a